sensor_id;sensor_type;location;lat;lon;timestamp;P1;durP1;ratioP1;P2;durP2;ratioP2
36257;SDS011;22294;52.044;4.582;2022-07-18T00:00:32;11.25;;;8.48;;
36257;SDS011;22294;52.044;4.582;2022-07-18T00:02:58;12.75;;;8.30;;
36257;SDS011;22294;52.044;4.582;2022-07-18T00:05:23;12.55;;;8.40;;
36257;SDS011;22294;52.044;4.582;2022-07-18T00:07:48;10.00;;;7.80;;
36257;SDS011;22294;52.044;4.582;2022-07-18T00:10:14;12.10;;;8.33;;
36257;SDS011;22294;52.044;4.582;2022-07-18T00:12:39;12.13;;;8.25;;
36257;SDS011;22294;52.044;4.582;2022-07-18T00:15:05;12.15;;;8.45;;
36257;SDS011;22294;52.044;4.582;2022-07-18T00:17:31;14.63;;;8.60;;
36257;SDS011;22294;52.044;4.582;2022-07-18T00:19:56;15.05;;;8.02;;
36257;SDS011;22294;52.044;4.582;2022-07-18T00:22:22;10.50;;;7.53;;
36257;SDS011;22294;52.044;4.582;2022-07-18T00:24:47;13.30;;;7.93;;
36257;SDS011;22294;52.044;4.582;2022-07-18T00:27:12;9.95;;;7.82;;
36257;SDS011;22294;52.044;4.582;2022-07-18T00:29:38;11.30;;;7.78;;
36257;SDS011;22294;52.044;4.582;2022-07-18T00:32:04;10.48;;;7.70;;
36257;SDS011;22294;52.044;4.582;2022-07-18T00:34:31;10.25;;;7.70;;
36257;SDS011;22294;52.044;4.582;2022-07-18T00:36:56;10.05;;;7.35;;
36257;SDS011;22294;52.044;4.582;2022-07-18T00:39:22;11.73;;;8.40;;
36257;SDS011;22294;52.044;4.582;2022-07-18T00:41:48;14.07;;;8.63;;
36257;SDS011;22294;52.044;4.582;2022-07-18T00:44:18;13.05;;;8.52;;
36257;SDS011;22294;52.044;4.582;2022-07-18T00:49:09;13.77;;;7.97;;
36257;SDS011;22294;52.044;4.582;2022-07-18T00:51:35;12.95;;;8.65;;
36257;SDS011;22294;52.044;4.582;2022-07-18T00:54:03;14.07;;;7.60;;
36257;SDS011;22294;52.044;4.582;2022-07-18T00:56:28;12.75;;;8.23;;
36257;SDS011;22294;52.044;4.582;2022-07-18T00:58:54;11.95;;;8.07;;
36257;SDS011;22294;52.044;4.582;2022-07-18T01:01:19;13.00;;;7.95;;
36257;SDS011;22294;52.044;4.582;2022-07-18T01:04:03;8.93;;;7.57;;
36257;SDS011;22294;52.044;4.582;2022-07-18T01:06:28;14.50;;;7.97;;
36257;SDS011;22294;52.044;4.582;2022-07-18T01:08:54;13.35;;;8.20;;
36257;SDS011;22294;52.044;4.582;2022-07-18T01:11:19;11.85;;;7.15;;
36257;SDS011;22294;52.044;4.582;2022-07-18T01:13:46;10.77;;;7.80;;
36257;SDS011;22294;52.044;4.582;2022-07-18T01:16:14;10.25;;;8.23;;
36257;SDS011;22294;52.044;4.582;2022-07-18T01:18:43;10.77;;;7.97;;
36257;SDS011;22294;52.044;4.582;2022-07-18T01:21:13;12.98;;;8.20;;
36257;SDS011;22294;52.044;4.582;2022-07-18T01:23:39;11.25;;;7.78;;
36257;SDS011;22294;52.044;4.582;2022-07-18T01:26:04;13.52;;;7.57;;
36257;SDS011;22294;52.044;4.582;2022-07-18T01:28:30;15.27;;;8.82;;
36257;SDS011;22294;52.044;4.582;2022-07-18T01:30:55;13.23;;;8.77;;
36257;SDS011;22294;52.044;4.582;2022-07-18T01:33:20;13.13;;;8.45;;
36257;SDS011;22294;52.044;4.582;2022-07-18T01:35:45;11.65;;;8.05;;
36257;SDS011;22294;52.044;4.582;2022-07-18T01:38:11;13.07;;;8.45;;
36257;SDS011;22294;52.044;4.582;2022-07-18T01:40:37;12.32;;;8.05;;
36257;SDS011;22294;52.044;4.582;2022-07-18T01:43:02;11.57;;;7.78;;
36257;SDS011;22294;52.044;4.582;2022-07-18T01:45:28;13.70;;;8.07;;
36257;SDS011;22294;52.044;4.582;2022-07-18T01:47:53;13.93;;;7.88;;
36257;SDS011;22294;52.044;4.582;2022-07-18T01:50:18;10.55;;;7.65;;
36257;SDS011;22294;52.044;4.582;2022-07-18T01:52:44;13.40;;;8.13;;
36257;SDS011;22294;52.044;4.582;2022-07-18T01:55:09;10.73;;;7.55;;
36257;SDS011;22294;52.044;4.582;2022-07-18T01:57:35;10.10;;;7.38;;
36257;SDS011;22294;52.044;4.582;2022-07-18T02:00:01;11.07;;;7.55;;
36257;SDS011;22294;52.044;4.582;2022-07-18T02:02:27;10.52;;;7.68;;
36257;SDS011;22294;52.044;4.582;2022-07-18T02:04:53;15.18;;;7.75;;
36257;SDS011;22294;52.044;4.582;2022-07-18T02:07:24;13.77;;;7.40;;
36257;SDS011;22294;52.044;4.582;2022-07-18T02:09:49;11.80;;;8.10;;
36257;SDS011;22294;52.044;4.582;2022-07-18T02:12:16;12.85;;;8.55;;
36257;SDS011;22294;52.044;4.582;2022-07-18T02:14:42;12.10;;;8.38;;
36257;SDS011;22294;52.044;4.582;2022-07-18T02:17:07;9.88;;;8.07;;
36257;SDS011;22294;52.044;4.582;2022-07-18T02:19:32;12.77;;;8.48;;
36257;SDS011;22294;52.044;4.582;2022-07-18T02:21:58;11.10;;;8.40;;
36257;SDS011;22294;52.044;4.582;2022-07-18T02:24:23;13.30;;;8.20;;
36257;SDS011;22294;52.044;4.582;2022-07-18T02:26:49;12.98;;;8.57;;
36257;SDS011;22294;52.044;4.582;2022-07-18T02:29:14;10.75;;;7.45;;
36257;SDS011;22294;52.044;4.582;2022-07-18T02:31:39;12.73;;;8.20;;
36257;SDS011;22294;52.044;4.582;2022-07-18T02:34:04;12.10;;;8.45;;
36257;SDS011;22294;52.044;4.582;2022-07-18T02:39:01;12.18;;;8.45;;
36257;SDS011;22294;52.044;4.582;2022-07-18T02:41:26;12.18;;;8.15;;
36257;SDS011;22294;52.044;4.582;2022-07-18T02:43:51;12.05;;;8.13;;
36257;SDS011;22294;52.044;4.582;2022-07-18T02:46:17;13.98;;;8.25;;
36257;SDS011;22294;52.044;4.582;2022-07-18T02:48:42;12.85;;;8.60;;
36257;SDS011;22294;52.044;4.582;2022-07-18T02:51:07;13.50;;;8.68;;
36257;SDS011;22294;52.044;4.582;2022-07-18T02:53:32;12.40;;;8.90;;
36257;SDS011;22294;52.044;4.582;2022-07-18T02:55:58;12.40;;;8.80;;
36257;SDS011;22294;52.044;4.582;2022-07-18T02:58:23;14.90;;;8.15;;
36257;SDS011;22294;52.044;4.582;2022-07-18T03:00:48;13.63;;;8.90;;
36257;SDS011;22294;52.044;4.582;2022-07-18T03:03:14;13.45;;;8.20;;
36257;SDS011;22294;52.044;4.582;2022-07-18T03:05:39;15.20;;;8.57;;
36257;SDS011;22294;52.044;4.582;2022-07-18T03:08:04;11.57;;;7.93;;
36257;SDS011;22294;52.044;4.582;2022-07-18T03:10:30;11.65;;;8.45;;
36257;SDS011;22294;52.044;4.582;2022-07-18T03:12:55;13.57;;;7.63;;
36257;SDS011;22294;52.044;4.582;2022-07-18T03:15:20;10.52;;;7.82;;
36257;SDS011;22294;52.044;4.582;2022-07-18T03:17:46;11.98;;;8.23;;
36257;SDS011;22294;52.044;4.582;2022-07-18T03:20:11;11.57;;;7.83;;
36257;SDS011;22294;52.044;4.582;2022-07-18T03:22:36;12.88;;;7.65;;
36257;SDS011;22294;52.044;4.582;2022-07-18T03:25:02;14.87;;;8.33;;
36257;SDS011;22294;52.044;4.582;2022-07-18T03:27:28;11.95;;;7.78;;
36257;SDS011;22294;52.044;4.582;2022-07-18T03:29:53;15.45;;;8.52;;
36257;SDS011;22294;52.044;4.582;2022-07-18T03:32:18;10.48;;;8.05;;
36257;SDS011;22294;52.044;4.582;2022-07-18T03:34:44;10.95;;;7.85;;
36257;SDS011;22294;52.044;4.582;2022-07-18T03:37:09;12.57;;;8.10;;
36257;SDS011;22294;52.044;4.582;2022-07-18T03:39:34;11.18;;;8.15;;
36257;SDS011;22294;52.044;4.582;2022-07-18T03:42:00;11.98;;;7.53;;
36257;SDS011;22294;52.044;4.582;2022-07-18T03:44:25;12.13;;;7.80;;
36257;SDS011;22294;52.044;4.582;2022-07-18T03:46:50;11.63;;;7.80;;
36257;SDS011;22294;52.044;4.582;2022-07-18T03:49:17;10.43;;;7.45;;
36257;SDS011;22294;52.044;4.582;2022-07-18T03:51:42;12.68;;;8.32;;
36257;SDS011;22294;52.044;4.582;2022-07-18T03:54:07;9.68;;;7.35;;
36257;SDS011;22294;52.044;4.582;2022-07-18T03:56:34;13.85;;;8.50;;
36257;SDS011;22294;52.044;4.582;2022-07-18T03:59:00;13.18;;;8.27;;
36257;SDS011;22294;52.044;4.582;2022-07-18T04:01:25;14.82;;;8.60;;
36257;SDS011;22294;52.044;4.582;2022-07-18T04:03:50;11.25;;;8.85;;
36257;SDS011;22294;52.044;4.582;2022-07-18T04:06:16;15.35;;;7.97;;
36257;SDS011;22294;52.044;4.582;2022-07-18T04:08:41;11.90;;;8.00;;
36257;SDS011;22294;52.044;4.582;2022-07-18T04:11:06;10.35;;;7.85;;
36257;SDS011;22294;52.044;4.582;2022-07-18T04:13:31;12.60;;;7.93;;
36257;SDS011;22294;52.044;4.582;2022-07-18T04:15:57;12.02;;;7.95;;
36257;SDS011;22294;52.044;4.582;2022-07-18T04:18:22;12.85;;;7.45;;
36257;SDS011;22294;52.044;4.582;2022-07-18T04:20:47;14.93;;;8.20;;
36257;SDS011;22294;52.044;4.582;2022-07-18T04:23:12;12.20;;;7.10;;
36257;SDS011;22294;52.044;4.582;2022-07-18T04:25:38;12.73;;;7.28;;
36257;SDS011;22294;52.044;4.582;2022-07-18T04:28:06;14.32;;;7.65;;
36257;SDS011;22294;52.044;4.582;2022-07-18T04:30:33;15.45;;;7.32;;
36257;SDS011;22294;52.044;4.582;2022-07-18T04:33:00;10.65;;;7.82;;
36257;SDS011;22294;52.044;4.582;2022-07-18T04:35:27;11.70;;;7.32;;
36257;SDS011;22294;52.044;4.582;2022-07-18T04:37:53;11.48;;;7.20;;
36257;SDS011;22294;52.044;4.582;2022-07-18T04:40:18;14.82;;;7.97;;
36257;SDS011;22294;52.044;4.582;2022-07-18T04:42:44;12.40;;;7.55;;
36257;SDS011;22294;52.044;4.582;2022-07-18T04:45:09;12.63;;;7.40;;
36257;SDS011;22294;52.044;4.582;2022-07-18T04:47:35;16.95;;;8.40;;
36257;SDS011;22294;52.044;4.582;2022-07-18T04:50:00;14.88;;;7.80;;
36257;SDS011;22294;52.044;4.582;2022-07-18T04:52:26;12.25;;;7.82;;
36257;SDS011;22294;52.044;4.582;2022-07-18T04:54:52;13.55;;;7.88;;
36257;SDS011;22294;52.044;4.582;2022-07-18T04:57:17;12.82;;;7.65;;
36257;SDS011;22294;52.044;4.582;2022-07-18T04:59:43;10.68;;;7.20;;
36257;SDS011;22294;52.044;4.582;2022-07-18T05:02:10;9.98;;;7.40;;
36257;SDS011;22294;52.044;4.582;2022-07-18T05:04:36;11.25;;;6.80;;
36257;SDS011;22294;52.044;4.582;2022-07-18T05:07:03;10.50;;;6.63;;
36257;SDS011;22294;52.044;4.582;2022-07-18T05:09:29;13.45;;;7.47;;
36257;SDS011;22294;52.044;4.582;2022-07-18T05:11:54;10.88;;;6.75;;
36257;SDS011;22294;52.044;4.582;2022-07-18T05:14:20;14.90;;;8.02;;
36257;SDS011;22294;52.044;4.582;2022-07-18T05:16:46;14.52;;;7.95;;
36257;SDS011;22294;52.044;4.582;2022-07-18T05:19:11;15.52;;;7.78;;
36257;SDS011;22294;52.044;4.582;2022-07-18T05:21:36;12.55;;;7.20;;
36257;SDS011;22294;52.044;4.582;2022-07-18T05:24:02;12.02;;;7.75;;
36257;SDS011;22294;52.044;4.582;2022-07-18T05:26:27;13.45;;;7.68;;
36257;SDS011;22294;52.044;4.582;2022-07-18T05:28:52;13.40;;;7.83;;
36257;SDS011;22294;52.044;4.582;2022-07-18T05:31:18;12.82;;;7.05;;
36257;SDS011;22294;52.044;4.582;2022-07-18T05:33:43;15.88;;;7.88;;
36257;SDS011;22294;52.044;4.582;2022-07-18T05:36:08;12.93;;;7.47;;
36257;SDS011;22294;52.044;4.582;2022-07-18T05:38:34;14.68;;;7.30;;
36257;SDS011;22294;52.044;4.582;2022-07-18T05:41:00;13.32;;;8.20;;
36257;SDS011;22294;52.044;4.582;2022-07-18T05:43:26;10.63;;;7.47;;
36257;SDS011;22294;52.044;4.582;2022-07-18T05:45:51;16.15;;;7.85;;
36257;SDS011;22294;52.044;4.582;2022-07-18T05:48:16;14.63;;;7.68;;
36257;SDS011;22294;52.044;4.582;2022-07-18T05:50:41;11.88;;;7.15;;
36257;SDS011;22294;52.044;4.582;2022-07-18T05:53:07;10.55;;;7.70;;
36257;SDS011;22294;52.044;4.582;2022-07-18T05:55:32;12.55;;;7.47;;
36257;SDS011;22294;52.044;4.582;2022-07-18T05:57:58;18.08;;;7.68;;
36257;SDS011;22294;52.044;4.582;2022-07-18T06:00:23;10.60;;;7.10;;
36257;SDS011;22294;52.044;4.582;2022-07-18T06:02:48;12.93;;;7.18;;
36257;SDS011;22294;52.044;4.582;2022-07-18T06:05:15;9.52;;;7.72;;
36257;SDS011;22294;52.044;4.582;2022-07-18T06:07:40;11.82;;;7.05;;
36257;SDS011;22294;52.044;4.582;2022-07-18T06:10:06;9.95;;;6.53;;
36257;SDS011;22294;52.044;4.582;2022-07-18T06:12:32;13.20;;;7.50;;
36257;SDS011;22294;52.044;4.582;2022-07-18T06:14:58;12.48;;;6.82;;
36257;SDS011;22294;52.044;4.582;2022-07-18T06:17:24;14.88;;;7.30;;
36257;SDS011;22294;52.044;4.582;2022-07-18T06:19:49;8.90;;;6.85;;
36257;SDS011;22294;52.044;4.582;2022-07-18T06:22:14;9.73;;;6.45;;
36257;SDS011;22294;52.044;4.582;2022-07-18T06:24:40;11.20;;;6.53;;
36257;SDS011;22294;52.044;4.582;2022-07-18T06:27:05;12.02;;;6.32;;
36257;SDS011;22294;52.044;4.582;2022-07-18T06:29:31;9.50;;;6.90;;
36257;SDS011;22294;52.044;4.582;2022-07-18T06:31:56;8.63;;;6.32;;
36257;SDS011;22294;52.044;4.582;2022-07-18T06:34:21;10.27;;;6.22;;
36257;SDS011;22294;52.044;4.582;2022-07-18T06:36:47;11.27;;;6.30;;
36257;SDS011;22294;52.044;4.582;2022-07-18T06:39:12;11.40;;;6.15;;
36257;SDS011;22294;52.044;4.582;2022-07-18T06:41:39;12.65;;;6.38;;
36257;SDS011;22294;52.044;4.582;2022-07-18T06:44:05;17.83;;;7.45;;
36257;SDS011;22294;52.044;4.582;2022-07-18T06:46:31;12.38;;;6.15;;
36257;SDS011;22294;52.044;4.582;2022-07-18T06:48:56;10.77;;;6.03;;
36257;SDS011;22294;52.044;4.582;2022-07-18T06:51:21;10.20;;;5.68;;
36257;SDS011;22294;52.044;4.582;2022-07-18T06:53:47;14.48;;;6.65;;
36257;SDS011;22294;52.044;4.582;2022-07-18T06:56:12;12.18;;;6.78;;
36257;SDS011;22294;52.044;4.582;2022-07-18T06:58:37;9.57;;;6.30;;
36257;SDS011;22294;52.044;4.582;2022-07-18T07:01:02;15.15;;;5.78;;
36257;SDS011;22294;52.044;4.582;2022-07-18T07:03:28;10.23;;;6.05;;
36257;SDS011;22294;52.044;4.582;2022-07-18T07:05:53;11.07;;;6.05;;
36257;SDS011;22294;52.044;4.582;2022-07-18T07:08:18;10.27;;;6.10;;
36257;SDS011;22294;52.044;4.582;2022-07-18T07:10:44;10.18;;;5.35;;
36257;SDS011;22294;52.044;4.582;2022-07-18T07:13:09;12.68;;;5.57;;
36257;SDS011;22294;52.044;4.582;2022-07-18T07:15:34;10.30;;;4.90;;
36257;SDS011;22294;52.044;4.582;2022-07-18T07:18:00;10.85;;;5.28;;
36257;SDS011;22294;52.044;4.582;2022-07-18T07:20:25;9.43;;;4.43;;
36257;SDS011;22294;52.044;4.582;2022-07-18T07:22:52;12.75;;;4.70;;
36257;SDS011;22294;52.044;4.582;2022-07-18T07:25:20;6.97;;;4.30;;
36257;SDS011;22294;52.044;4.582;2022-07-18T07:27:46;12.50;;;4.65;;
36257;SDS011;22294;52.044;4.582;2022-07-18T07:30:12;13.63;;;4.75;;
36257;SDS011;22294;52.044;4.582;2022-07-18T07:32:40;7.93;;;4.35;;
36257;SDS011;22294;52.044;4.582;2022-07-18T07:35:07;9.43;;;4.18;;
36257;SDS011;22294;52.044;4.582;2022-07-18T07:37:36;7.90;;;3.85;;
36257;SDS011;22294;52.044;4.582;2022-07-18T07:40:05;12.98;;;3.75;;
36257;SDS011;22294;52.044;4.582;2022-07-18T07:42:31;8.77;;;4.00;;
36257;SDS011;22294;52.044;4.582;2022-07-18T07:44:56;13.18;;;3.65;;
36257;SDS011;22294;52.044;4.582;2022-07-18T07:47:22;10.65;;;3.35;;
36257;SDS011;22294;52.044;4.582;2022-07-18T07:49:47;9.20;;;3.25;;
36257;SDS011;22294;52.044;4.582;2022-07-18T07:52:12;6.55;;;2.88;;
36257;SDS011;22294;52.044;4.582;2022-07-18T07:54:39;7.30;;;3.00;;
36257;SDS011;22294;52.044;4.582;2022-07-18T07:57:04;5.53;;;3.25;;
36257;SDS011;22294;52.044;4.582;2022-07-18T07:59:30;7.22;;;2.95;;
36257;SDS011;22294;52.044;4.582;2022-07-18T08:01:57;5.32;;;2.70;;
36257;SDS011;22294;52.044;4.582;2022-07-18T08:04:22;6.15;;;2.92;;
36257;SDS011;22294;52.044;4.582;2022-07-18T08:06:47;6.75;;;2.67;;
36257;SDS011;22294;52.044;4.582;2022-07-18T08:09:13;6.85;;;2.70;;
36257;SDS011;22294;52.044;4.582;2022-07-18T08:11:38;5.28;;;2.55;;
36257;SDS011;22294;52.044;4.582;2022-07-18T08:14:03;6.35;;;2.50;;
36257;SDS011;22294;52.044;4.582;2022-07-18T08:16:29;7.35;;;2.83;;
36257;SDS011;22294;52.044;4.582;2022-07-18T08:18:54;6.70;;;2.65;;
36257;SDS011;22294;52.044;4.582;2022-07-18T08:21:19;7.10;;;2.90;;
36257;SDS011;22294;52.044;4.582;2022-07-18T08:23:44;7.00;;;3.47;;
36257;SDS011;22294;52.044;4.582;2022-07-18T08:26:12;11.52;;;4.68;;
36257;SDS011;22294;52.044;4.582;2022-07-18T08:28:37;9.30;;;2.72;;
36257;SDS011;22294;52.044;4.582;2022-07-18T08:31:02;9.97;;;2.90;;
36257;SDS011;22294;52.044;4.582;2022-07-18T08:33:28;7.13;;;2.50;;
36257;SDS011;22294;52.044;4.582;2022-07-18T08:35:53;8.27;;;3.30;;
36257;SDS011;22294;52.044;4.582;2022-07-18T08:38:18;9.52;;;3.65;;
36257;SDS011;22294;52.044;4.582;2022-07-18T08:40:44;6.43;;;2.42;;
36257;SDS011;22294;52.044;4.582;2022-07-18T08:43:12;6.95;;;3.55;;
36257;SDS011;22294;52.044;4.582;2022-07-18T08:45:37;7.82;;;2.72;;
36257;SDS011;22294;52.044;4.582;2022-07-18T08:48:02;5.70;;;2.35;;
36257;SDS011;22294;52.044;4.582;2022-07-18T08:50:28;10.35;;;2.75;;
36257;SDS011;22294;52.044;4.582;2022-07-18T08:52:54;9.85;;;3.25;;
36257;SDS011;22294;52.044;4.582;2022-07-18T08:55:20;6.70;;;2.90;;
36257;SDS011;22294;52.044;4.582;2022-07-18T08:57:45;6.63;;;2.95;;
36257;SDS011;22294;52.044;4.582;2022-07-18T09:00:11;5.85;;;2.30;;
36257;SDS011;22294;52.044;4.582;2022-07-18T09:02:37;6.85;;;2.63;;
36257;SDS011;22294;52.044;4.582;2022-07-18T09:05:03;4.75;;;2.15;;
36257;SDS011;22294;52.044;4.582;2022-07-18T09:07:30;6.30;;;2.78;;
36257;SDS011;22294;52.044;4.582;2022-07-18T09:10:01;7.63;;;2.60;;
36257;SDS011;22294;52.044;4.582;2022-07-18T09:12:29;5.50;;;2.53;;
36257;SDS011;22294;52.044;4.582;2022-07-18T09:15:07;8.65;;;2.72;;
36257;SDS011;22294;52.044;4.582;2022-07-18T09:17:35;8.18;;;2.40;;
36257;SDS011;22294;52.044;4.582;2022-07-18T09:22:35;7.85;;;3.30;;
36257;SDS011;22294;52.044;4.582;2022-07-18T09:25:09;7.45;;;2.58;;
36257;SDS011;22294;52.044;4.582;2022-07-18T09:27:45;8.13;;;2.83;;
36257;SDS011;22294;52.044;4.582;2022-07-18T09:30:20;7.55;;;2.67;;
36257;SDS011;22294;52.044;4.582;2022-07-18T09:32:51;10.35;;;5.55;;
36257;SDS011;22294;52.044;4.582;2022-07-18T09:35:20;9.25;;;3.65;;
36257;SDS011;22294;52.044;4.582;2022-07-18T09:38:04;10.27;;;2.33;;
36257;SDS011;22294;52.044;4.582;2022-07-18T09:43:04;5.35;;;2.53;;
36257;SDS011;22294;52.044;4.582;2022-07-18T09:45:32;7.88;;;3.20;;
36257;SDS011;22294;52.044;4.582;2022-07-18T09:48:07;7.57;;;2.83;;
36257;SDS011;22294;52.044;4.582;2022-07-18T09:50:35;11.23;;;3.80;;
36257;SDS011;22294;52.044;4.582;2022-07-18T09:53:09;8.57;;;2.75;;
36257;SDS011;22294;52.044;4.582;2022-07-18T09:55:41;6.03;;;1.98;;
36257;SDS011;22294;52.044;4.582;2022-07-18T09:58:17;7.93;;;2.38;;
36257;SDS011;22294;52.044;4.582;2022-07-18T10:00:44;5.03;;;2.13;;
36257;SDS011;22294;52.044;4.582;2022-07-18T10:03:10;5.93;;;2.20;;
36257;SDS011;22294;52.044;4.582;2022-07-18T10:05:36;3.80;;;2.17;;
36257;SDS011;22294;52.044;4.582;2022-07-18T10:08:04;8.18;;;2.17;;
36257;SDS011;22294;52.044;4.582;2022-07-18T10:10:33;6.07;;;2.15;;
36257;SDS011;22294;52.044;4.582;2022-07-18T10:12:59;5.07;;;2.03;;
36257;SDS011;22294;52.044;4.582;2022-07-18T10:15:27;6.53;;;2.22;;
36257;SDS011;22294;52.044;4.582;2022-07-18T10:17:54;6.65;;;2.10;;
36257;SDS011;22294;52.044;4.582;2022-07-18T10:20:27;5.10;;;2.25;;
36257;SDS011;22294;52.044;4.582;2022-07-18T10:22:55;4.60;;;2.13;;
36257;SDS011;22294;52.044;4.582;2022-07-18T10:25:23;5.65;;;2.25;;
36257;SDS011;22294;52.044;4.582;2022-07-18T10:30:33;6.05;;;3.47;;
36257;SDS011;22294;52.044;4.582;2022-07-18T10:32:59;4.72;;;2.30;;
36257;SDS011;22294;52.044;4.582;2022-07-18T10:39:02;5.22;;;2.20;;
36257;SDS011;22294;52.044;4.582;2022-07-18T10:41:27;4.35;;;2.83;;
36257;SDS011;22294;52.044;4.582;2022-07-18T10:43:53;3.25;;;2.40;;
36257;SDS011;22294;52.044;4.582;2022-07-18T10:46:18;4.57;;;2.35;;
36257;SDS011;22294;52.044;4.582;2022-07-18T10:48:47;5.00;;;3.45;;
36257;SDS011;22294;52.044;4.582;2022-07-18T10:51:14;3.75;;;2.15;;
36257;SDS011;22294;52.044;4.582;2022-07-18T10:56:19;4.05;;;2.30;;
36257;SDS011;22294;52.044;4.582;2022-07-18T10:58:45;5.72;;;3.08;;
36257;SDS011;22294;52.044;4.582;2022-07-18T11:01:14;4.90;;;2.63;;
36257;SDS011;22294;52.044;4.582;2022-07-18T11:03:42;3.50;;;2.67;;
36257;SDS011;22294;52.044;4.582;2022-07-18T11:06:07;3.60;;;2.47;;
36257;SDS011;22294;52.044;4.582;2022-07-18T11:08:33;4.50;;;2.50;;
36257;SDS011;22294;52.044;4.582;2022-07-18T11:18:33;6.55;;;2.70;;
36257;SDS011;22294;52.044;4.582;2022-07-18T11:23:50;6.80;;;2.55;;
36257;SDS011;22294;52.044;4.582;2022-07-18T11:26:21;4.75;;;2.65;;
36257;SDS011;22294;52.044;4.582;2022-07-18T11:28:48;4.75;;;2.50;;
36257;SDS011;22294;52.044;4.582;2022-07-18T11:31:20;5.97;;;2.53;;
36257;SDS011;22294;52.044;4.582;2022-07-18T11:33:47;2.88;;;2.08;;
36257;SDS011;22294;52.044;4.582;2022-07-18T11:36:17;5.93;;;2.67;;
36257;SDS011;22294;52.044;4.582;2022-07-18T11:38:49;5.60;;;2.63;;
36257;SDS011;22294;52.044;4.582;2022-07-18T11:41:16;5.18;;;2.50;;
36257;SDS011;22294;52.044;4.582;2022-07-18T11:43:43;3.60;;;1.90;;
36257;SDS011;22294;52.044;4.582;2022-07-18T11:46:10;5.00;;;2.47;;
36257;SDS011;22294;52.044;4.582;2022-07-18T11:48:37;5.53;;;2.55;;
36257;SDS011;22294;52.044;4.582;2022-07-18T11:51:10;3.85;;;2.50;;
36257;SDS011;22294;52.044;4.582;2022-07-18T11:53:44;3.67;;;2.50;;
36257;SDS011;22294;52.044;4.582;2022-07-18T11:56:10;5.15;;;4.07;;
36257;SDS011;22294;52.044;4.582;2022-07-18T11:58:36;5.55;;;4.72;;
36257;SDS011;22294;52.044;4.582;2022-07-18T12:01:03;9.35;;;4.88;;
36257;SDS011;22294;52.044;4.582;2022-07-18T12:03:29;4.40;;;3.22;;
36257;SDS011;22294;52.044;4.582;2022-07-18T12:05:55;3.95;;;3.15;;
36257;SDS011;22294;52.044;4.582;2022-07-18T12:08:28;5.15;;;2.90;;
36257;SDS011;22294;52.044;4.582;2022-07-18T12:16:21;4.40;;;2.35;;
36257;SDS011;22294;52.044;4.582;2022-07-18T12:18:51;7.72;;;2.78;;
36257;SDS011;22294;52.044;4.582;2022-07-18T12:21:17;4.60;;;2.45;;
36257;SDS011;22294;52.044;4.582;2022-07-18T12:23:42;3.53;;;2.42;;
36257;SDS011;22294;52.044;4.582;2022-07-18T12:26:08;5.20;;;2.60;;
36257;SDS011;22294;52.044;4.582;2022-07-18T12:28:33;4.93;;;2.55;;
36257;SDS011;22294;52.044;4.582;2022-07-18T12:30:58;4.45;;;2.55;;
36257;SDS011;22294;52.044;4.582;2022-07-18T12:33:25;4.10;;;2.45;;
36257;SDS011;22294;52.044;4.582;2022-07-18T12:35:54;6.22;;;2.72;;
36257;SDS011;22294;52.044;4.582;2022-07-18T12:38:24;3.75;;;2.38;;
36257;SDS011;22294;52.044;4.582;2022-07-18T12:40:57;4.38;;;2.75;;
36257;SDS011;22294;52.044;4.582;2022-07-18T12:43:34;5.40;;;2.72;;
36257;SDS011;22294;52.044;4.582;2022-07-18T12:46:02;5.68;;;2.70;;
36257;SDS011;22294;52.044;4.582;2022-07-18T12:48:31;6.03;;;2.88;;
36257;SDS011;22294;52.044;4.582;2022-07-18T12:51:04;4.53;;;2.47;;
36257;SDS011;22294;52.044;4.582;2022-07-18T12:53:32;5.47;;;2.75;;
36257;SDS011;22294;52.044;4.582;2022-07-18T12:55:59;3.50;;;2.55;;
36257;SDS011;22294;52.044;4.582;2022-07-18T12:58:25;4.05;;;2.63;;
36257;SDS011;22294;52.044;4.582;2022-07-18T13:00:50;7.93;;;3.17;;
36257;SDS011;22294;52.044;4.582;2022-07-18T13:03:16;5.82;;;2.80;;
36257;SDS011;22294;52.044;4.582;2022-07-18T13:05:41;4.05;;;2.97;;
36257;SDS011;22294;52.044;4.582;2022-07-18T13:08:07;9.27;;;3.05;;
36257;SDS011;22294;52.044;4.582;2022-07-18T13:10:34;4.38;;;2.78;;
36257;SDS011;22294;52.044;4.582;2022-07-18T13:13:02;5.75;;;3.50;;
36257;SDS011;22294;52.044;4.582;2022-07-18T13:17:54;6.18;;;2.80;;
36257;SDS011;22294;52.044;4.582;2022-07-18T13:20:20;8.05;;;3.00;;
36257;SDS011;22294;52.044;4.582;2022-07-18T13:22:46;5.07;;;2.95;;
36257;SDS011;22294;52.044;4.582;2022-07-18T13:25:11;5.45;;;2.97;;
36257;SDS011;22294;52.044;4.582;2022-07-18T13:27:36;8.43;;;3.05;;
36257;SDS011;22294;52.044;4.582;2022-07-18T13:30:03;4.90;;;3.10;;
36257;SDS011;22294;52.044;4.582;2022-07-18T13:32:31;5.28;;;3.00;;
36257;SDS011;22294;52.044;4.582;2022-07-18T13:34:56;5.38;;;3.60;;
36257;SDS011;22294;52.044;4.582;2022-07-18T13:37:21;5.47;;;2.95;;
36257;SDS011;22294;52.044;4.582;2022-07-18T13:39:47;6.20;;;3.30;;
36257;SDS011;22294;52.044;4.582;2022-07-18T13:42:12;8.18;;;3.58;;
36257;SDS011;22294;52.044;4.582;2022-07-18T13:44:38;4.50;;;3.15;;
36257;SDS011;22294;52.044;4.582;2022-07-18T13:47:04;5.13;;;3.78;;
36257;SDS011;22294;52.044;4.582;2022-07-18T13:49:29;5.80;;;3.20;;
36257;SDS011;22294;52.044;4.582;2022-07-18T13:51:55;6.38;;;3.13;;
36257;SDS011;22294;52.044;4.582;2022-07-18T13:54:21;7.35;;;3.50;;
36257;SDS011;22294;52.044;4.582;2022-07-18T13:56:46;5.82;;;3.30;;
36257;SDS011;22294;52.044;4.582;2022-07-18T13:59:12;4.07;;;2.90;;
36257;SDS011;22294;52.044;4.582;2022-07-18T14:01:38;6.95;;;3.05;;
36257;SDS011;22294;52.044;4.582;2022-07-18T14:04:03;6.22;;;3.05;;
36257;SDS011;22294;52.044;4.582;2022-07-18T14:06:29;7.30;;;3.33;;
36257;SDS011;22294;52.044;4.582;2022-07-18T14:08:54;7.68;;;3.33;;
36257;SDS011;22294;52.044;4.582;2022-07-18T14:11:19;6.65;;;3.90;;
36257;SDS011;22294;52.044;4.582;2022-07-18T14:13:45;5.70;;;3.30;;
36257;SDS011;22294;52.044;4.582;2022-07-18T14:16:11;5.60;;;3.15;;
36257;SDS011;22294;52.044;4.582;2022-07-18T14:18:37;5.53;;;3.25;;
36257;SDS011;22294;52.044;4.582;2022-07-18T14:21:03;6.67;;;3.20;;
36257;SDS011;22294;52.044;4.582;2022-07-18T14:23:28;3.78;;;3.22;;
36257;SDS011;22294;52.044;4.582;2022-07-18T14:25:53;4.60;;;3.00;;
36257;SDS011;22294;52.044;4.582;2022-07-18T14:28:18;3.67;;;3.10;;
36257;SDS011;22294;52.044;4.582;2022-07-18T14:30:44;3.88;;;2.97;;
36257;SDS011;22294;52.044;4.582;2022-07-18T14:33:10;4.22;;;3.00;;
36257;SDS011;22294;52.044;4.582;2022-07-18T14:35:35;4.53;;;2.80;;
36257;SDS011;22294;52.044;4.582;2022-07-18T14:38:00;7.53;;;3.13;;
36257;SDS011;22294;52.044;4.582;2022-07-18T14:40:26;5.73;;;3.20;;
36257;SDS011;22294;52.044;4.582;2022-07-18T14:42:51;4.90;;;2.88;;
36257;SDS011;22294;52.044;4.582;2022-07-18T14:45:16;4.85;;;2.90;;
36257;SDS011;22294;52.044;4.582;2022-07-18T14:47:42;6.53;;;3.42;;
36257;SDS011;22294;52.044;4.582;2022-07-18T14:50:07;4.03;;;3.20;;
36257;SDS011;22294;52.044;4.582;2022-07-18T14:52:34;3.65;;;2.90;;
36257;SDS011;22294;52.044;4.582;2022-07-18T14:55:00;3.97;;;2.97;;
36257;SDS011;22294;52.044;4.582;2022-07-18T14:57:26;5.80;;;3.30;;
36257;SDS011;22294;52.044;4.582;2022-07-18T14:59:52;4.43;;;2.92;;
36257;SDS011;22294;52.044;4.582;2022-07-18T15:02:17;6.38;;;3.03;;
36257;SDS011;22294;52.044;4.582;2022-07-18T15:04:42;4.63;;;3.00;;
36257;SDS011;22294;52.044;4.582;2022-07-18T15:07:08;7.57;;;3.10;;
36257;SDS011;22294;52.044;4.582;2022-07-18T15:09:33;7.68;;;2.75;;
36257;SDS011;22294;52.044;4.582;2022-07-18T15:11:59;3.50;;;2.90;;